Terminal Aerodrome Forecast
Issued by NWS

Home | Current Version | Previous Version | Text Only | Print | Product List | Glossary On
Versions: 1 2 3 4 5 6 7 8 9 10 11 12
695
FTUS45 KRIW 260526
TAFCPR
TAF
KCPR 260526Z 2606/2706 06008KT P6SM FEW040 SCT100
     FM261900 06012KT P6SM VCSH SCT025 OVC040
     FM262300 03016G26KT 5SM -RA OVC025
     FM270200 01009KT P6SM VCSH BKN030=

USA.gov is the U.S. government's official web portal to all federal, state and local government web resources and services.